sensor_id;sensor_type;location;lat;lon;timestamp;P1;durP1;ratioP1;P2;durP2;ratioP2
31482;SDS011;18103;52.246;8.052;2022-10-16T00:01:45;8.17;;;3.63;;
31482;SDS011;18103;52.246;8.052;2022-10-16T00:04:13;7.47;;;3.60;;
31482;SDS011;18103;52.246;8.052;2022-10-16T00:06:39;12.47;;;3.60;;
31482;SDS011;18103;52.246;8.052;2022-10-16T00:09:05;9.43;;;3.53;;
31482;SDS011;18103;52.246;8.052;2022-10-16T00:11:32;9.17;;;3.17;;
31482;SDS011;18103;52.246;8.052;2022-10-16T00:14:02;8.63;;;3.20;;
31482;SDS011;18103;52.246;8.052;2022-10-16T00:16:29;9.73;;;3.50;;
31482;SDS011;18103;52.246;8.052;2022-10-16T00:18:55;6.13;;;3.40;;
31482;SDS011;18103;52.246;8.052;2022-10-16T00:21:22;7.07;;;3.70;;
31482;SDS011;18103;52.246;8.052;2022-10-16T00:23:50;7.83;;;3.23;;
31482;SDS011;18103;52.246;8.052;2022-10-16T00:26:18;7.97;;;3.70;;
31482;SDS011;18103;52.246;8.052;2022-10-16T00:28:46;12.40;;;4.37;;
31482;SDS011;18103;52.246;8.052;2022-10-16T00:31:12;12.17;;;4.60;;
31482;SDS011;18103;52.246;8.052;2022-10-16T00:33:39;7.40;;;3.70;;
31482;SDS011;18103;52.246;8.052;2022-10-16T00:36:05;7.77;;;4.33;;
31482;SDS011;18103;52.246;8.052;2022-10-16T00:38:32;16.87;;;5.10;;
31482;SDS011;18103;52.246;8.052;2022-10-16T00:40:59;5.67;;;3.80;;
31482;SDS011;18103;52.246;8.052;2022-10-16T00:43:37;10.87;;;4.83;;
31482;SDS011;18103;52.246;8.052;2022-10-16T00:46:17;7.63;;;4.50;;
31482;SDS011;18103;52.246;8.052;2022-10-16T00:48:55;7.83;;;4.33;;
31482;SDS011;18103;52.246;8.052;2022-10-16T00:51:28;11.03;;;4.10;;
31482;SDS011;18103;52.246;8.052;2022-10-16T00:54:00;12.47;;;4.13;;
31482;SDS011;18103;52.246;8.052;2022-10-16T00:56:29;10.20;;;4.10;;
31482;SDS011;18103;52.246;8.052;2022-10-16T00:58:54;8.37;;;4.57;;
31482;SDS011;18103;52.246;8.052;2022-10-16T01:01:20;12.40;;;5.30;;
31482;SDS011;18103;52.246;8.052;2022-10-16T01:03:45;8.77;;;4.27;;
31482;SDS011;18103;52.246;8.052;2022-10-16T01:06:24;9.57;;;5.07;;
31482;SDS011;18103;52.246;8.052;2022-10-16T01:12:22;12.47;;;5.23;;
31482;SDS011;18103;52.246;8.052;2022-10-16T01:15:20;17.80;;;4.47;;
31482;SDS011;18103;52.246;8.052;2022-10-16T01:17:41;9.70;;;4.30;;
31482;SDS011;18103;52.246;8.052;2022-10-16T01:20:26;9.73;;;4.63;;
31482;SDS011;18103;52.246;8.052;2022-10-16T01:25:54;9.10;;;4.87;;
31482;SDS011;18103;52.246;8.052;2022-10-16T01:28:32;7.30;;;4.20;;
31482;SDS011;18103;52.246;8.052;2022-10-16T01:31:01;9.70;;;4.37;;
31482;SDS011;18103;52.246;8.052;2022-10-16T01:33:40;10.13;;;4.10;;
31482;SDS011;18103;52.246;8.052;2022-10-16T01:36:16;9.80;;;4.93;;
31482;SDS011;18103;52.246;8.052;2022-10-16T01:38:47;8.37;;;4.53;;
31482;SDS011;18103;52.246;8.052;2022-10-16T01:41:27;8.43;;;4.97;;
31482;SDS011;18103;52.246;8.052;2022-10-16T01:46:50;8.67;;;4.60;;
31482;SDS011;18103;52.246;8.052;2022-10-16T01:49:21;10.37;;;4.30;;
31482;SDS011;18103;52.246;8.052;2022-10-16T01:51:51;6.63;;;4.40;;
31482;SDS011;18103;52.246;8.052;2022-10-16T01:54:21;12.97;;;4.47;;
31482;SDS011;18103;52.246;8.052;2022-10-16T01:56:50;11.00;;;4.70;;
31482;SDS011;18103;52.246;8.052;2022-10-16T01:59:17;11.30;;;4.57;;
31482;SDS011;18103;52.246;8.052;2022-10-16T02:01:47;10.93;;;5.03;;
31482;SDS011;18103;52.246;8.052;2022-10-16T02:04:17;15.00;;;5.20;;
31482;SDS011;18103;52.246;8.052;2022-10-16T02:06:48;10.80;;;4.67;;
31482;SDS011;18103;52.246;8.052;2022-10-16T02:09:13;13.13;;;5.93;;
31482;SDS011;18103;52.246;8.052;2022-10-16T02:11:41;11.17;;;5.27;;
31482;SDS011;18103;52.246;8.052;2022-10-16T02:14:07;11.53;;;4.93;;
31482;SDS011;18103;52.246;8.052;2022-10-16T02:16:37;14.87;;;4.77;;
31482;SDS011;18103;52.246;8.052;2022-10-16T02:19:04;11.33;;;5.33;;
31482;SDS011;18103;52.246;8.052;2022-10-16T02:21:33;9.17;;;4.93;;
31482;SDS011;18103;52.246;8.052;2022-10-16T02:27:05;11.33;;;4.80;;
31482;SDS011;18103;52.246;8.052;2022-10-16T02:29:44;9.53;;;4.90;;
31482;SDS011;18103;52.246;8.052;2022-10-16T02:32:20;10.17;;;5.00;;
31482;SDS011;18103;52.246;8.052;2022-10-16T02:34:48;11.47;;;4.97;;
31482;SDS011;18103;52.246;8.052;2022-10-16T02:37:15;7.83;;;4.77;;
31482;SDS011;18103;52.246;8.052;2022-10-16T02:39:42;9.50;;;4.60;;
31482;SDS011;18103;52.246;8.052;2022-10-16T02:42:12;10.87;;;4.20;;
31482;SDS011;18103;52.246;8.052;2022-10-16T02:44:38;9.07;;;4.80;;
31482;SDS011;18103;52.246;8.052;2022-10-16T02:47:03;10.90;;;4.53;;
31482;SDS011;18103;52.246;8.052;2022-10-16T02:49:31;8.27;;;4.90;;
31482;SDS011;18103;52.246;8.052;2022-10-16T02:51:57;10.37;;;4.33;;
31482;SDS011;18103;52.246;8.052;2022-10-16T02:54:22;8.43;;;4.90;;
31482;SDS011;18103;52.246;8.052;2022-10-16T02:56:48;8.33;;;4.10;;
31482;SDS011;18103;52.246;8.052;2022-10-16T02:59:14;6.67;;;4.43;;
31482;SDS011;18103;52.246;8.052;2022-10-16T03:01:42;10.83;;;4.67;;
31482;SDS011;18103;52.246;8.052;2022-10-16T03:04:08;10.70;;;4.47;;
31482;SDS011;18103;52.246;8.052;2022-10-16T03:06:34;9.10;;;4.70;;
31482;SDS011;18103;52.246;8.052;2022-10-16T03:08:59;7.77;;;3.93;;
31482;SDS011;18103;52.246;8.052;2022-10-16T03:11:25;9.80;;;4.53;;
31482;SDS011;18103;52.246;8.052;2022-10-16T03:13:51;8.37;;;4.10;;
31482;SDS011;18103;52.246;8.052;2022-10-16T03:16:16;7.70;;;3.93;;
31482;SDS011;18103;52.246;8.052;2022-10-16T03:18:42;8.40;;;4.20;;
31482;SDS011;18103;52.246;8.052;2022-10-16T03:21:07;11.60;;;4.17;;
31482;SDS011;18103;52.246;8.052;2022-10-16T03:23:32;11.43;;;4.70;;
31482;SDS011;18103;52.246;8.052;2022-10-16T03:25:58;5.53;;;3.73;;
31482;SDS011;18103;52.246;8.052;2022-10-16T03:28:23;6.60;;;4.40;;
31482;SDS011;18103;52.246;8.052;2022-10-16T03:30:49;9.93;;;4.57;;
31482;SDS011;18103;52.246;8.052;2022-10-16T03:33:14;7.70;;;3.80;;
31482;SDS011;18103;52.246;8.052;2022-10-16T03:35:40;9.60;;;3.93;;
31482;SDS011;18103;52.246;8.052;2022-10-16T03:38:05;11.20;;;3.97;;
31482;SDS011;18103;52.246;8.052;2022-10-16T03:40:32;8.40;;;4.50;;
31482;SDS011;18103;52.246;8.052;2022-10-16T03:42:58;6.27;;;3.77;;
31482;SDS011;18103;52.246;8.052;2022-10-16T03:45:24;7.30;;;4.40;;
31482;SDS011;18103;52.246;8.052;2022-10-16T03:47:50;7.00;;;3.90;;
31482;SDS011;18103;52.246;8.052;2022-10-16T03:50:15;11.60;;;4.03;;
31482;SDS011;18103;52.246;8.052;2022-10-16T03:52:43;11.67;;;4.00;;
31482;SDS011;18103;52.246;8.052;2022-10-16T03:55:08;5.57;;;3.83;;
31482;SDS011;18103;52.246;8.052;2022-10-16T03:57:34;6.73;;;4.00;;
31482;SDS011;18103;52.246;8.052;2022-10-16T03:59:59;11.60;;;4.10;;
31482;SDS011;18103;52.246;8.052;2022-10-16T04:02:24;8.30;;;4.07;;
31482;SDS011;18103;52.246;8.052;2022-10-16T04:04:50;10.23;;;3.70;;
31482;SDS011;18103;52.246;8.052;2022-10-16T04:07:15;5.47;;;3.30;;
31482;SDS011;18103;52.246;8.052;2022-10-16T04:09:41;7.40;;;4.10;;
31482;SDS011;18103;52.246;8.052;2022-10-16T04:12:06;10.50;;;3.57;;
31482;SDS011;18103;52.246;8.052;2022-10-16T04:14:32;9.63;;;3.90;;
31482;SDS011;18103;52.246;8.052;2022-10-16T04:16:57;6.37;;;2.83;;
31482;SDS011;18103;52.246;8.052;2022-10-16T04:19:23;8.10;;;3.03;;
31482;SDS011;18103;52.246;8.052;2022-10-16T04:21:48;5.07;;;2.90;;
31482;SDS011;18103;52.246;8.052;2022-10-16T04:24:13;4.57;;;3.00;;
31482;SDS011;18103;52.246;8.052;2022-10-16T04:26:41;3.40;;;2.60;;
31482;SDS011;18103;52.246;8.052;2022-10-16T04:29:06;5.37;;;3.47;;
31482;SDS011;18103;52.246;8.052;2022-10-16T04:31:32;4.67;;;2.90;;
31482;SDS011;18103;52.246;8.052;2022-10-16T04:33:58;5.23;;;2.83;;
31482;SDS011;18103;52.246;8.052;2022-10-16T04:36:23;6.63;;;2.47;;
31482;SDS011;18103;52.246;8.052;2022-10-16T04:38:48;5.43;;;2.63;;
31482;SDS011;18103;52.246;8.052;2022-10-16T04:41:14;4.77;;;2.60;;
31482;SDS011;18103;52.246;8.052;2022-10-16T04:43:39;8.17;;;2.80;;
31482;SDS011;18103;52.246;8.052;2022-10-16T04:46:04;3.70;;;2.80;;
31482;SDS011;18103;52.246;8.052;2022-10-16T04:48:30;4.47;;;2.67;;
31482;SDS011;18103;52.246;8.052;2022-10-16T04:50:56;5.50;;;2.77;;
31482;SDS011;18103;52.246;8.052;2022-10-16T04:53:21;6.60;;;2.60;;
31482;SDS011;18103;52.246;8.052;2022-10-16T04:55:47;4.07;;;2.20;;
31482;SDS011;18103;52.246;8.052;2022-10-16T04:58:12;4.00;;;2.30;;
31482;SDS011;18103;52.246;8.052;2022-10-16T05:00:37;8.63;;;2.27;;
31482;SDS011;18103;52.246;8.052;2022-10-16T05:03:03;5.30;;;2.20;;
31482;SDS011;18103;52.246;8.052;2022-10-16T05:05:32;2.97;;;2.20;;
31482;SDS011;18103;52.246;8.052;2022-10-16T05:07:58;4.17;;;2.60;;
31482;SDS011;18103;52.246;8.052;2022-10-16T05:10:26;4.77;;;2.03;;
31482;SDS011;18103;52.246;8.052;2022-10-16T05:12:51;3.37;;;2.00;;
31482;SDS011;18103;52.246;8.052;2022-10-16T05:15:17;4.53;;;1.90;;
31482;SDS011;18103;52.246;8.052;2022-10-16T05:17:43;5.80;;;1.83;;
31482;SDS011;18103;52.246;8.052;2022-10-16T05:20:09;3.27;;;2.13;;
31482;SDS011;18103;52.246;8.052;2022-10-16T05:22:34;3.83;;;2.20;;
31482;SDS011;18103;52.246;8.052;2022-10-16T05:24:59;4.67;;;1.97;;
31482;SDS011;18103;52.246;8.052;2022-10-16T05:27:25;4.63;;;2.67;;
31482;SDS011;18103;52.246;8.052;2022-10-16T05:29:50;2.63;;;2.00;;
31482;SDS011;18103;52.246;8.052;2022-10-16T05:32:16;4.13;;;2.20;;
31482;SDS011;18103;52.246;8.052;2022-10-16T05:34:42;8.70;;;2.30;;
31482;SDS011;18103;52.246;8.052;2022-10-16T05:37:09;2.87;;;1.97;;
31482;SDS011;18103;52.246;8.052;2022-10-16T05:39:35;6.57;;;2.37;;
31482;SDS011;18103;52.246;8.052;2022-10-16T05:42:01;4.67;;;2.10;;
31482;SDS011;18103;52.246;8.052;2022-10-16T05:44:27;4.60;;;2.33;;
31482;SDS011;18103;52.246;8.052;2022-10-16T05:46:55;2.53;;;1.80;;
31482;SDS011;18103;52.246;8.052;2022-10-16T05:49:20;2.80;;;1.97;;
31482;SDS011;18103;52.246;8.052;2022-10-16T05:51:45;6.43;;;1.80;;
31482;SDS011;18103;52.246;8.052;2022-10-16T05:54:11;2.30;;;1.67;;
31482;SDS011;18103;52.246;8.052;2022-10-16T05:56:36;3.73;;;1.53;;
31482;SDS011;18103;52.246;8.052;2022-10-16T05:59:03;5.70;;;1.60;;
31482;SDS011;18103;52.246;8.052;2022-10-16T06:01:28;5.20;;;1.90;;
31482;SDS011;18103;52.246;8.052;2022-10-16T06:03:55;2.77;;;1.80;;
31482;SDS011;18103;52.246;8.052;2022-10-16T06:06:22;2.73;;;1.53;;
31482;SDS011;18103;52.246;8.052;2022-10-16T06:08:50;2.17;;;1.73;;
31482;SDS011;18103;52.246;8.052;2022-10-16T06:11:18;3.40;;;2.00;;
31482;SDS011;18103;52.246;8.052;2022-10-16T06:13:44;4.33;;;1.47;;
31482;SDS011;18103;52.246;8.052;2022-10-16T06:16:11;2.97;;;1.73;;
31482;SDS011;18103;52.246;8.052;2022-10-16T06:18:37;2.97;;;1.63;;
31482;SDS011;18103;52.246;8.052;2022-10-16T06:21:07;1.97;;;1.70;;
31482;SDS011;18103;52.246;8.052;2022-10-16T06:23:34;6.90;;;1.60;;
31482;SDS011;18103;52.246;8.052;2022-10-16T06:26:07;2.00;;;1.53;;
31482;SDS011;18103;52.246;8.052;2022-10-16T06:28:37;2.40;;;1.57;;
31482;SDS011;18103;52.246;8.052;2022-10-16T06:31:04;2.97;;;1.73;;
31482;SDS011;18103;52.246;8.052;2022-10-16T06:33:30;1.90;;;1.57;;
31482;SDS011;18103;52.246;8.052;2022-10-16T06:36:09;2.00;;;1.60;;
31482;SDS011;18103;52.246;8.052;2022-10-16T06:38:39;1.90;;;1.70;;
31482;SDS011;18103;52.246;8.052;2022-10-16T06:41:05;2.30;;;1.80;;
31482;SDS011;18103;52.246;8.052;2022-10-16T06:43:32;5.60;;;1.70;;
31482;SDS011;18103;52.246;8.052;2022-10-16T06:45:58;7.33;;;1.73;;
31482;SDS011;18103;52.246;8.052;2022-10-16T06:48:25;3.97;;;1.47;;
31482;SDS011;18103;52.246;8.052;2022-10-16T06:51:01;4.67;;;1.63;;
31482;SDS011;18103;52.246;8.052;2022-10-16T06:53:30;3.17;;;1.50;;
31482;SDS011;18103;52.246;8.052;2022-10-16T06:56:06;4.97;;;1.40;;
31482;SDS011;18103;52.246;8.052;2022-10-16T06:58:40;2.30;;;1.60;;
31482;SDS011;18103;52.246;8.052;2022-10-16T07:01:06;2.83;;;1.70;;
31482;SDS011;18103;52.246;8.052;2022-10-16T07:03:32;2.43;;;1.50;;
31482;SDS011;18103;52.246;8.052;2022-10-16T07:06:01;2.63;;;1.80;;
31482;SDS011;18103;52.246;8.052;2022-10-16T07:08:30;3.47;;;1.40;;
31482;SDS011;18103;52.246;8.052;2022-10-16T07:11:00;3.20;;;1.67;;
31482;SDS011;18103;52.246;8.052;2022-10-16T07:13:26;2.27;;;1.20;;
31482;SDS011;18103;52.246;8.052;2022-10-16T07:15:51;2.50;;;1.40;;
31482;SDS011;18103;52.246;8.052;2022-10-16T07:18:17;1.83;;;1.27;;
31482;SDS011;18103;52.246;8.052;2022-10-16T07:20:45;5.73;;;1.60;;
31482;SDS011;18103;52.246;8.052;2022-10-16T07:23:11;6.73;;;2.00;;
31482;SDS011;18103;52.246;8.052;2022-10-16T07:25:36;8.60;;;1.90;;
31482;SDS011;18103;52.246;8.052;2022-10-16T07:28:01;4.20;;;1.77;;
31482;SDS011;18103;52.246;8.052;2022-10-16T07:30:27;2.13;;;1.90;;
31482;SDS011;18103;52.246;8.052;2022-10-16T07:32:52;2.73;;;1.67;;
31482;SDS011;18103;52.246;8.052;2022-10-16T07:35:17;3.13;;;1.63;;
31482;SDS011;18103;52.246;8.052;2022-10-16T07:37:45;7.30;;;1.70;;
31482;SDS011;18103;52.246;8.052;2022-10-16T07:40:15;4.67;;;1.37;;
31482;SDS011;18103;52.246;8.052;2022-10-16T07:42:40;2.00;;;1.50;;
31482;SDS011;18103;52.246;8.052;2022-10-16T07:45:05;5.20;;;1.70;;
31482;SDS011;18103;52.246;8.052;2022-10-16T07:47:34;6.13;;;1.63;;
31482;SDS011;18103;52.246;8.052;2022-10-16T07:50:06;4.30;;;1.83;;
31482;SDS011;18103;52.246;8.052;2022-10-16T07:52:34;2.07;;;1.43;;
31482;SDS011;18103;52.246;8.052;2022-10-16T07:55:00;3.83;;;1.93;;
31482;SDS011;18103;52.246;8.052;2022-10-16T07:57:26;1.53;;;1.40;;
31482;SDS011;18103;52.246;8.052;2022-10-16T07:59:51;3.93;;;1.87;;
31482;SDS011;18103;52.246;8.052;2022-10-16T08:02:16;5.97;;;1.33;;
31482;SDS011;18103;52.246;8.052;2022-10-16T08:04:46;4.13;;;1.80;;
31482;SDS011;18103;52.246;8.052;2022-10-16T08:07:11;3.47;;;1.83;;
31482;SDS011;18103;52.246;8.052;2022-10-16T08:09:37;3.93;;;1.70;;
31482;SDS011;18103;52.246;8.052;2022-10-16T08:12:02;3.77;;;1.63;;
31482;SDS011;18103;52.246;8.052;2022-10-16T08:14:29;4.17;;;1.53;;
31482;SDS011;18103;52.246;8.052;2022-10-16T08:16:54;2.00;;;1.10;;
31482;SDS011;18103;52.246;8.052;2022-10-16T08:19:19;5.70;;;1.40;;
31482;SDS011;18103;52.246;8.052;2022-10-16T08:21:47;5.47;;;1.63;;
31482;SDS011;18103;52.246;8.052;2022-10-16T08:24:13;3.93;;;1.47;;
31482;SDS011;18103;52.246;8.052;2022-10-16T08:26:38;2.07;;;1.27;;
31482;SDS011;18103;52.246;8.052;2022-10-16T08:29:06;7.60;;;1.70;;
31482;SDS011;18103;52.246;8.052;2022-10-16T08:31:31;5.30;;;1.60;;
31482;SDS011;18103;52.246;8.052;2022-10-16T08:33:57;4.23;;;1.60;;
31482;SDS011;18103;52.246;8.052;2022-10-16T08:36:22;2.00;;;1.30;;
31482;SDS011;18103;52.246;8.052;2022-10-16T08:38:48;2.70;;;1.33;;
31482;SDS011;18103;52.246;8.052;2022-10-16T08:44:09;4.57;;;1.53;;
31482;SDS011;18103;52.246;8.052;2022-10-16T08:47:11;5.83;;;1.70;;
31482;SDS011;18103;52.246;8.052;2022-10-16T08:49:43;1.43;;;1.00;;
31482;SDS011;18103;52.246;8.052;2022-10-16T08:52:24;4.07;;;1.33;;
31482;SDS011;18103;52.246;8.052;2022-10-16T08:54:54;5.97;;;1.97;;
31482;SDS011;18103;52.246;8.052;2022-10-16T08:57:22;1.57;;;1.20;;
31482;SDS011;18103;52.246;8.052;2022-10-16T08:59:52;2.20;;;1.47;;
31482;SDS011;18103;52.246;8.052;2022-10-16T09:02:38;5.10;;;1.40;;
31482;SDS011;18103;52.246;8.052;2022-10-16T09:05:16;3.47;;;1.50;;
31482;SDS011;18103;52.246;8.052;2022-10-16T09:10:58;4.10;;;1.93;;
31482;SDS011;18103;52.246;8.052;2022-10-16T09:13:34;3.37;;;1.30;;
31482;SDS011;18103;52.246;8.052;2022-10-16T09:16:23;3.53;;;1.53;;
31482;SDS011;18103;52.246;8.052;2022-10-16T09:21:47;7.70;;;1.30;;
31482;SDS011;18103;52.246;8.052;2022-10-16T09:24:17;5.97;;;1.33;;
31482;SDS011;18103;52.246;8.052;2022-10-16T09:26:45;4.30;;;1.33;;
31482;SDS011;18103;52.246;8.052;2022-10-16T09:29:12;5.67;;;1.20;;
31482;SDS011;18103;52.246;8.052;2022-10-16T09:31:42;2.50;;;1.13;;
31482;SDS011;18103;52.246;8.052;2022-10-16T09:34:14;3.27;;;1.33;;
31482;SDS011;18103;52.246;8.052;2022-10-16T09:36:44;6.80;;;1.50;;
31482;SDS011;18103;52.246;8.052;2022-10-16T09:39:11;3.10;;;1.30;;
31482;SDS011;18103;52.246;8.052;2022-10-16T09:41:37;6.13;;;1.20;;
31482;SDS011;18103;52.246;8.052;2022-10-16T09:44:04;3.50;;;1.30;;
31482;SDS011;18103;52.246;8.052;2022-10-16T09:46:44;3.23;;;0.90;;
31482;SDS011;18103;52.246;8.052;2022-10-16T09:49:22;3.20;;;1.27;;
31482;SDS011;18103;52.246;8.052;2022-10-16T09:51:49;5.30;;;1.70;;
31482;SDS011;18103;52.246;8.052;2022-10-16T09:56:43;7.53;;;1.47;;
31482;SDS011;18103;52.246;8.052;2022-10-16T09:59:21;2.87;;;0.93;;
31482;SDS011;18103;52.246;8.052;2022-10-16T10:01:52;1.87;;;0.90;;
31482;SDS011;18103;52.246;8.052;2022-10-16T10:04:20;1.70;;;0.90;;
31482;SDS011;18103;52.246;8.052;2022-10-16T10:06:49;2.80;;;1.13;;
31482;SDS011;18103;52.246;8.052;2022-10-16T10:09:21;3.90;;;1.10;;
31482;SDS011;18103;52.246;8.052;2022-10-16T10:11:58;1.10;;;0.73;;
31482;SDS011;18103;52.246;8.052;2022-10-16T10:14:25;6.97;;;0.70;;
31482;SDS011;18103;52.246;8.052;2022-10-16T10:17:11;4.13;;;0.63;;
31482;SDS011;18103;52.246;8.052;2022-10-16T10:30:51;3.73;;;0.70;;
31482;SDS011;18103;52.246;8.052;2022-10-16T10:36:12;4.77;;;1.10;;
31482;SDS011;18103;52.246;8.052;2022-10-16T10:38:52;3.67;;;1.10;;
31482;SDS011;18103;52.246;8.052;2022-10-16T10:53:10;4.43;;;1.00;;
31482;SDS011;18103;52.246;8.052;2022-10-16T11:07:16;3.23;;;0.70;;
31482;SDS011;18103;52.246;8.052;2022-10-16T11:09:51;4.57;;;1.00;;
31482;SDS011;18103;52.246;8.052;2022-10-16T11:17:56;2.23;;;0.90;;
31482;SDS011;18103;52.246;8.052;2022-10-16T11:20:34;1.00;;;0.80;;
31482;SDS011;18103;52.246;8.052;2022-10-16T11:23:23;1.67;;;0.70;;
31482;SDS011;18103;52.246;8.052;2022-10-16T11:25:50;2.63;;;1.03;;
31482;SDS011;18103;52.246;8.052;2022-10-16T11:28:38;3.47;;;1.00;;
31482;SDS011;18103;52.246;8.052;2022-10-16T11:33:47;3.03;;;1.00;;
31482;SDS011;18103;52.246;8.052;2022-10-16T11:36:21;3.23;;;0.80;;
31482;SDS011;18103;52.246;8.052;2022-10-16T11:38:52;8.30;;;1.43;;
31482;SDS011;18103;52.246;8.052;2022-10-16T11:41:42;4.20;;;1.20;;
31482;SDS011;18103;52.246;8.052;2022-10-16T11:49:27;4.00;;;1.30;;
31482;SDS011;18103;52.246;8.052;2022-10-16T11:55:14;6.70;;;1.73;;
31482;SDS011;18103;52.246;8.052;2022-10-16T11:57:46;6.30;;;1.60;;
31482;SDS011;18103;52.246;8.052;2022-10-16T12:08:22;2.23;;;1.10;;
31482;SDS011;18103;52.246;8.052;2022-10-16T12:10:47;2.60;;;1.27;;
31482;SDS011;18103;52.246;8.052;2022-10-16T12:13:29;5.60;;;1.60;;
31482;SDS011;18103;52.246;8.052;2022-10-16T12:18:37;4.63;;;1.60;;
31482;SDS011;18103;52.246;8.052;2022-10-16T12:21:08;2.67;;;1.40;;
31482;SDS011;18103;52.246;8.052;2022-10-16T12:23:38;5.73;;;1.77;;
31482;SDS011;18103;52.246;8.052;2022-10-16T12:26:28;4.53;;;1.50;;
31482;SDS011;18103;52.246;8.052;2022-10-16T12:28:56;7.00;;;1.40;;
31482;SDS011;18103;52.246;8.052;2022-10-16T12:31:39;4.47;;;2.17;;
31482;SDS011;18103;52.246;8.052;2022-10-16T12:37:06;4.37;;;1.07;;
31482;SDS011;18103;52.246;8.052;2022-10-16T12:39:34;4.23;;;0.97;;
31482;SDS011;18103;52.246;8.052;2022-10-16T12:42:05;7.70;;;1.27;;
31482;SDS011;18103;52.246;8.052;2022-10-16T12:44:48;4.57;;;1.30;;
31482;SDS011;18103;52.246;8.052;2022-10-16T12:50:27;4.73;;;1.00;;
31482;SDS011;18103;52.246;8.052;2022-10-16T12:52:56;5.03;;;1.03;;
31482;SDS011;18103;52.246;8.052;2022-10-16T12:55:22;2.53;;;1.10;;
31482;SDS011;18103;52.246;8.052;2022-10-16T12:57:56;4.47;;;1.10;;
31482;SDS011;18103;52.246;8.052;2022-10-16T13:03:44;4.50;;;1.20;;
31482;SDS011;18103;52.246;8.052;2022-10-16T13:17:37;4.70;;;0.97;;
31482;SDS011;18103;52.246;8.052;2022-10-16T13:23:03;3.97;;;0.90;;
31482;SDS011;18103;52.246;8.052;2022-10-16T13:28:28;1.10;;;0.73;;
31482;SDS011;18103;52.246;8.052;2022-10-16T13:30:58;2.73;;;0.67;;
31482;SDS011;18103;52.246;8.052;2022-10-16T13:35:56;5.47;;;0.80;;
31482;SDS011;18103;52.246;8.052;2022-10-16T13:38:26;3.57;;;1.17;;
31482;SDS011;18103;52.246;8.052;2022-10-16T13:41:01;3.07;;;0.80;;
31482;SDS011;18103;52.246;8.052;2022-10-16T13:43:46;1.17;;;0.80;;
31482;SDS011;18103;52.246;8.052;2022-10-16T13:46:20;4.07;;;0.90;;
31482;SDS011;18103;52.246;8.052;2022-10-16T13:48:59;2.43;;;0.80;;
31482;SDS011;18103;52.246;8.052;2022-10-16T13:51:37;4.10;;;0.90;;
31482;SDS011;18103;52.246;8.052;2022-10-16T13:54:02;3.97;;;0.70;;
31482;SDS011;18103;52.246;8.052;2022-10-16T13:56:28;14.03;;;1.47;;
31482;SDS011;18103;52.246;8.052;2022-10-16T14:01:24;4.10;;;0.60;;
31482;SDS011;18103;52.246;8.052;2022-10-16T14:03:59;4.37;;;0.87;;
31482;SDS011;18103;52.246;8.052;2022-10-16T14:06:33;7.80;;;0.70;;
31482;SDS011;18103;52.246;8.052;2022-10-16T14:09:09;11.27;;;1.10;;
31482;SDS011;18103;52.246;8.052;2022-10-16T14:11:49;4.67;;;0.87;;
31482;SDS011;18103;52.246;8.052;2022-10-16T14:14:16;3.87;;;1.00;;
31482;SDS011;18103;52.246;8.052;2022-10-16T14:16:44;7.30;;;0.90;;
31482;SDS011;18103;52.246;8.052;2022-10-16T14:19:27;2.30;;;0.70;;
31482;SDS011;18103;52.246;8.052;2022-10-16T14:21:54;4.43;;;0.70;;
31482;SDS011;18103;52.246;8.052;2022-10-16T14:24:32;6.77;;;0.90;;
31482;SDS011;18103;52.246;8.052;2022-10-16T14:26:59;2.77;;;0.80;;
31482;SDS011;18103;52.246;8.052;2022-10-16T14:29:26;5.07;;;0.87;;
31482;SDS011;18103;52.246;8.052;2022-10-16T14:31:59;4.43;;;1.20;;
31482;SDS011;18103;52.246;8.052;2022-10-16T14:34:29;4.83;;;0.80;;
31482;SDS011;18103;52.246;8.052;2022-10-16T14:36:58;5.53;;;0.60;;
31482;SDS011;18103;52.246;8.052;2022-10-16T14:39:33;1.80;;;0.50;;
31482;SDS011;18103;52.246;8.052;2022-10-16T14:42:01;2.97;;;0.70;;
31482;SDS011;18103;52.246;8.052;2022-10-16T14:44:28;5.77;;;0.87;;
31482;SDS011;18103;52.246;8.052;2022-10-16T14:46:58;6.07;;;0.87;;
31482;SDS011;18103;52.246;8.052;2022-10-16T14:49:33;5.10;;;0.93;;
31482;SDS011;18103;52.246;8.052;2022-10-16T14:52:01;5.93;;;1.20;;
31482;SDS011;18103;52.246;8.052;2022-10-16T14:54:30;4.27;;;0.90;;
31482;SDS011;18103;52.246;8.052;2022-10-16T14:56:56;2.63;;;0.80;;
31482;SDS011;18103;52.246;8.052;2022-10-16T15:02:14;1.37;;;0.77;;
31482;SDS011;18103;52.246;8.052;2022-10-16T15:04:57;9.57;;;2.23;;
31482;SDS011;18103;52.246;8.052;2022-10-16T15:07:30;2.27;;;0.63;;
31482;SDS011;18103;52.246;8.052;2022-10-16T15:09:55;4.87;;;1.20;;
31482;SDS011;18103;52.246;8.052;2022-10-16T15:12:22;6.43;;;1.13;;
31482;SDS011;18103;52.246;8.052;2022-10-16T15:14:49;10.07;;;2.93;;
31482;SDS011;18103;52.246;8.052;2022-10-16T15:17:15;5.80;;;1.47;;
31482;SDS011;18103;52.246;8.052;2022-10-16T15:19:40;2.27;;;0.77;;
31482;SDS011;18103;52.246;8.052;2022-10-16T15:22:05;3.37;;;1.10;;
31482;SDS011;18103;52.246;8.052;2022-10-16T15:24:31;6.80;;;0.70;;
31482;SDS011;18103;52.246;8.052;2022-10-16T15:26:56;3.93;;;1.00;;
31482;SDS011;18103;52.246;8.052;2022-10-16T15:29:21;9.57;;;2.37;;
31482;SDS011;18103;52.246;8.052;2022-10-16T15:31:47;4.90;;;1.63;;
31482;SDS011;18103;52.246;8.052;2022-10-16T15:34:12;2.67;;;0.87;;
31482;SDS011;18103;52.246;8.052;2022-10-16T15:36:38;9.33;;;3.10;;
31482;SDS011;18103;52.246;8.052;2022-10-16T15:39:04;6.93;;;2.53;;
31482;SDS011;18103;52.246;8.052;2022-10-16T15:41:36;6.37;;;1.00;;
31482;SDS011;18103;52.246;8.052;2022-10-16T15:44:02;4.00;;;1.23;;
31482;SDS011;18103;52.246;8.052;2022-10-16T15:46:28;5.20;;;1.40;;
31482;SDS011;18103;52.246;8.052;2022-10-16T15:48:56;7.13;;;2.90;;
31482;SDS011;18103;52.246;8.052;2022-10-16T15:51:23;18.07;;;6.70;;
31482;SDS011;18103;52.246;8.052;2022-10-16T15:53:49;3.00;;;0.87;;
31482;SDS011;18103;52.246;8.052;2022-10-16T15:56:16;4.57;;;1.03;;
31482;SDS011;18103;52.246;8.052;2022-10-16T15:58:42;6.43;;;1.60;;
31482;SDS011;18103;52.246;8.052;2022-10-16T16:01:08;5.47;;;0.90;;
31482;SDS011;18103;52.246;8.052;2022-10-16T16:03:35;5.53;;;0.87;;
31482;SDS011;18103;52.246;8.052;2022-10-16T16:06:06;3.43;;;1.17;;
31482;SDS011;18103;52.246;8.052;2022-10-16T16:08:32;3.37;;;0.90;;
31482;SDS011;18103;52.246;8.052;2022-10-16T16:10:59;4.17;;;0.93;;
31482;SDS011;18103;52.246;8.052;2022-10-16T16:13:26;4.53;;;0.80;;
31482;SDS011;18103;52.246;8.052;2022-10-16T16:15:51;2.97;;;0.80;;
31482;SDS011;18103;52.246;8.052;2022-10-16T16:18:17;5.77;;;1.33;;
31482;SDS011;18103;52.246;8.052;2022-10-16T16:20:42;2.77;;;1.07;;
31482;SDS011;18103;52.246;8.052;2022-10-16T16:23:07;4.80;;;0.87;;
31482;SDS011;18103;52.246;8.052;2022-10-16T16:25:33;2.60;;;0.90;;
31482;SDS011;18103;52.246;8.052;2022-10-16T16:27:58;4.70;;;1.27;;
31482;SDS011;18103;52.246;8.052;2022-10-16T16:30:26;1.53;;;1.17;;
31482;SDS011;18103;52.246;8.052;2022-10-16T16:32:51;1.67;;;1.00;;
31482;SDS011;18103;52.246;8.052;2022-10-16T16:35:16;4.43;;;0.90;;
31482;SDS011;18103;52.246;8.052;2022-10-16T16:37:42;3.83;;;1.20;;
31482;SDS011;18103;52.246;8.052;2022-10-16T16:40:07;1.57;;;1.10;;
31482;SDS011;18103;52.246;8.052;2022-10-16T16:42:32;7.43;;;1.20;;
31482;SDS011;18103;52.246;8.052;2022-10-16T16:44:58;3.83;;;1.30;;
31482;SDS011;18103;52.246;8.052;2022-10-16T16:47:24;7.30;;;2.77;;
31482;SDS011;18103;52.246;8.052;2022-10-16T16:49:49;8.83;;;3.73;;
31482;SDS011;18103;52.246;8.052;2022-10-16T16:52:15;12.40;;;3.23;;
31482;SDS011;18103;52.246;8.052;2022-10-16T16:54:40;9.40;;;3.97;;
31482;SDS011;18103;52.246;8.052;2022-10-16T16:57:06;8.23;;;3.77;;
31482;SDS011;18103;52.246;8.052;2022-10-16T16:59:31;5.87;;;2.73;;